Penndel, Pennsylvania
Current Conditions -  °F | °C
As of 7:54 PM on Saturday 22 Nov 2014 (Local Time) from KPNE Reporting Station
Overcast Overcast  
Wind Chill: 40°   Ceiling: 8500
Heat Index: 45°   Visibility: 10mi
Dew Point: 19°   Wind: 10mph
Humidity: 36%   Direction: 220°SW
Pressure: 30.29"   Gusts: NA
Location:  40.1816°N, 74.9144°W
Report Text: KPNE 230054Z AUTO 22009KT 10SM FEW065 OVC085 07/M07 A3029 RMK AO2 SLP258 T00721072 TSNO
Loading
Personal Weather Stations






























Interactive Weather Map New forecast layout! Learn more

10-Day Weather Forecast

Advertisements
Track Severe Weather on mobile